createdAt,value
2023-05-13T00:01:57.411Z,99456.25
2023-05-13T00:05:08.074Z,99461.44
2023-05-13T00:08:12.102Z,99457.34
2023-05-13T00:11:15.756Z,99469.16
2023-05-13T00:14:19.493Z,99458.91
2023-05-13T00:17:23.055Z,99456.53
2023-05-13T00:20:28.017Z,99454.56
2023-05-13T00:23:31.725Z,99458.84
2023-05-13T00:26:35.168Z,99452.16
2023-05-13T00:29:38.855Z,99452.75
2023-05-13T00:32:42.490Z,99453.88
2023-05-13T00:35:47.578Z,99454.28
2023-05-13T00:38:54.177Z,99453.53
2023-05-13T00:41:59.388Z,99461.75
2023-05-13T00:45:03.187Z,99458.25
2023-05-13T00:48:09.730Z,99462.44
2023-05-13T00:51:14.891Z,99465.69
2023-05-13T00:54:18.426Z,99457.31
2023-05-13T00:57:22.573Z,99464.06
2023-05-13T01:00:26.336Z,99470.06
2023-05-13T01:03:36.633Z,99466.69
2023-05-13T01:06:53.715Z,99464.91
2023-05-13T01:10:04.875Z,99470.41
2023-05-13T01:13:12.709Z,99468.41
2023-05-13T01:16:23.336Z,99476.34
2023-05-13T01:19:40.318Z,99474.50
2023-05-13T01:22:45.380Z,99464.75
2023-05-13T01:25:50.608Z,99468.34
2023-05-13T01:28:54.428Z,99476.63
2023-05-13T01:32:00.573Z,99469.09
2023-05-13T01:35:05.445Z,99473.19
2023-05-13T01:38:12.980Z,99471.59
2023-05-13T01:41:16.560Z,99470.22
2023-05-13T01:44:20.292Z,99473.22
2023-05-13T01:47:23.816Z,99473.72
2023-05-13T01:50:27.596Z,99477.09
2023-05-13T01:53:32.591Z,99478.31
2023-05-13T01:56:36.175Z,99466.28
2023-05-13T01:59:40.014Z,99467.09
2023-05-13T02:02:43.605Z,99473.16
2023-05-13T02:05:47.982Z,99474.47
2023-05-13T02:08:52.959Z,99468.06
2023-05-13T02:11:56.601Z,99467.94
2023-05-13T02:15:00.150Z,99467.47
2023-05-13T02:18:03.741Z,99466.81
2023-05-13T02:21:07.477Z,99465.81
2023-05-13T02:24:13.857Z,99465.97
2023-05-13T02:27:17.308Z,99463.31
2023-05-13T02:30:21.008Z,99457.16
2023-05-13T02:33:24.795Z,99457.25
2023-05-13T02:36:28.712Z,99457.94
2023-05-13T02:39:33.836Z,99460.88
2023-05-13T02:42:37.259Z,99468.38
2023-05-13T02:45:42.086Z,99464.44
2023-05-13T02:48:46.976Z,99462.38
2023-05-13T02:51:50.538Z,99463.63
2023-05-13T02:54:59.616Z,99462.38
2023-05-13T02:58:03.338Z,99468.34
2023-05-13T03:01:07.640Z,99469.38
2023-05-13T03:04:11.364Z,99478.06
2023-05-13T03:07:14.872Z,99471.53
2023-05-13T03:10:19.971Z,99475.44
2023-05-13T03:13:23.937Z,99477.44
2023-05-13T03:16:27.611Z,99474.03
2023-05-13T03:19:30.997Z,99464.13
2023-05-13T03:22:34.822Z,99470.66
2023-05-13T03:25:39.967Z,99468.03
2023-05-13T03:28:43.761Z,99469.78
2023-05-13T03:31:47.682Z,99477.81
2023-05-13T03:34:51.812Z,99481.09
2023-05-13T03:37:55.292Z,99479.69
2023-05-13T03:41:00.407Z,99479.38
2023-05-13T03:44:04.122Z,99481.25
2023-05-13T03:47:08.274Z,99482.16
2023-05-13T03:50:12.309Z,99487.59
2023-05-13T03:53:21.394Z,99488.72
2023-05-13T03:56:26.729Z,99487.53
2023-05-13T03:59:31.031Z,99500.22
2023-05-13T04:02:34.611Z,99497.47
2023-05-13T04:05:38.162Z,99498.84
2023-05-13T04:08:42.031Z,99503.38
2023-05-13T04:11:46.911Z,99501.84
2023-05-13T04:14:50.407Z,99503.69
2023-05-13T04:17:54.049Z,99503.31
2023-05-13T04:20:57.540Z,99499.72
2023-05-13T04:24:00.884Z,99502.75
2023-05-13T04:27:06.384Z,99502.22
2023-05-13T04:30:11.110Z,99509.47
2023-05-13T04:33:16.830Z,99510.31
2023-05-13T04:36:22.715Z,99516.00
2023-05-13T04:39:26.918Z,99517.56
2023-05-13T04:42:32.442Z,99518.28
2023-05-13T04:45:37.368Z,99523.22
2023-05-13T04:48:48.720Z,99530.09
2023-05-13T04:51:52.929Z,99525.22
2023-05-13T04:54:57.165Z,99533.50
2023-05-13T04:58:02.286Z,99530.44
2023-05-13T05:01:06.099Z,99531.28
2023-05-13T05:04:09.853Z,99536.59
2023-05-13T05:07:13.679Z,99532.00
2023-05-13T05:10:28.170Z,99538.56
2023-05-13T05:13:37.027Z,99546.72
2023-05-13T05:16:41.016Z,99547.00
2023-05-13T05:19:45.635Z,99547.88
2023-05-13T05:22:50.312Z,99552.59
2023-05-13T05:26:07.908Z,99550.06
2023-05-13T05:29:17.053Z,99556.13
2023-05-13T05:32:21.859Z,99553.50
2023-05-13T05:35:25.515Z,99564.28
2023-05-13T05:38:29.542Z,99575.28
2023-05-13T05:41:35.175Z,99567.06
2023-05-13T05:44:40.485Z,99562.56
2023-05-13T05:47:44.476Z,99579.34
2023-05-13T05:50:49.309Z,99579.66
2023-05-13T05:54:00.073Z,99579.94
2023-05-13T05:57:03.764Z,99570.34
2023-05-13T06:00:10.552Z,99579.56
2023-05-13T06:03:18.842Z,99580.97
2023-05-13T06:06:22.586Z,99581.81
2023-05-13T06:09:26.253Z,99584.72
2023-05-13T06:12:30.181Z,99589.41
2023-05-13T06:15:35.195Z,99594.69
2023-05-13T06:18:39.239Z,99591.69
2023-05-13T06:21:43.290Z,99591.00
2023-05-13T06:24:47.186Z,99598.19
2023-05-13T06:27:50.847Z,99596.47
2023-05-13T06:30:59.991Z,99595.28
2023-05-13T06:34:03.513Z,99596.94
2023-05-13T06:37:08.061Z,99608.22
2023-05-13T06:40:12.557Z,99612.19
2023-05-13T06:43:18.913Z,99609.06
2023-05-13T06:46:26.908Z,99618.16
2023-05-13T06:49:30.574Z,99614.66
2023-05-13T06:52:34.197Z,99615.69
2023-05-13T06:55:41.931Z,99624.16
2023-05-13T06:58:45.534Z,99624.13
2023-05-13T07:01:50.551Z,99626.19
2023-05-13T07:04:54.113Z,99619.75
2023-05-13T07:07:57.975Z,99622.50
2023-05-13T07:11:03.208Z,99615.66
2023-05-13T07:14:18.199Z,99611.22
2023-05-13T07:17:23.656Z,99594.56
2023-05-13T07:20:27.255Z,99596.34
2023-05-13T07:23:31.649Z,99603.53
2023-05-13T07:26:35.204Z,99596.72
2023-05-13T07:29:38.909Z,99595.75
2023-05-13T07:32:44.049Z,99594.78
2023-05-13T07:35:48.067Z,99599.03
2023-05-13T07:38:51.799Z,99590.97
2023-05-13T07:41:55.479Z,99590.47
2023-05-13T07:44:58.876Z,99587.63
2023-05-13T07:48:03.992Z,99585.00
2023-05-13T07:51:07.675Z,99591.38
2023-05-13T07:54:11.414Z,99585.66
2023-05-13T07:57:15.072Z,99583.38
2023-05-13T08:00:19.333Z,99584.38
2023-05-13T08:03:25.092Z,99581.97
2023-05-13T08:06:28.631Z,99578.16
2023-05-13T08:09:32.006Z,99582.97
2023-05-13T08:12:35.456Z,99575.25
2023-05-13T08:15:39.377Z,99574.34
2023-05-13T08:18:44.695Z,99571.22
2023-05-13T08:21:48.608Z,99569.09
2023-05-13T08:24:52.281Z,99576.91
2023-05-13T08:27:55.984Z,99571.63
2023-05-13T08:31:02.703Z,99565.25
2023-05-13T08:34:09.038Z,99579.50
2023-05-13T08:37:12.471Z,99579.88
2023-05-13T08:40:16.459Z,99568.09
2023-05-13T08:43:20.928Z,99570.25
2023-05-13T08:46:26.000Z,99569.50
2023-05-13T08:49:31.054Z,99570.03
2023-05-13T08:52:34.503Z,99572.91
2023-05-13T08:55:39.780Z,99573.59
2023-05-13T08:58:43.163Z,99572.50
2023-05-13T09:01:47.076Z,99575.88
2023-05-13T09:04:56.181Z,99570.50
2023-05-13T09:07:59.842Z,99574.44
2023-05-13T09:11:03.645Z,99553.09
2023-05-13T09:14:08.494Z,99570.88
2023-05-13T09:17:12.299Z,99554.31
2023-05-13T09:20:18.687Z,99568.25
2023-05-13T09:23:25.455Z,99564.63
2023-05-13T09:26:29.451Z,99561.22
2023-05-13T09:29:33.757Z,99552.28
2023-05-13T09:32:37.148Z,99547.75
2023-05-13T09:35:43.951Z,99559.38
2023-05-13T09:38:48.184Z,99554.78
2023-05-13T09:41:51.674Z,99541.84
2023-05-13T09:44:55.368Z,99553.31
2023-05-13T09:47:59.055Z,99541.00
2023-05-13T09:51:03.920Z,99543.88
2023-05-13T09:54:08.212Z,99549.75
2023-05-13T09:57:14.307Z,99550.19
2023-05-13T10:00:31.697Z,99547.13
2023-05-13T10:03:36.633Z,99539.84
2023-05-13T10:06:41.771Z,99551.13
2023-05-13T10:09:48.199Z,99534.81
2023-05-13T10:12:54.004Z,99558.22
2023-05-13T10:15:57.632Z,99548.06
2023-05-13T10:19:01.967Z,99549.81
2023-05-13T10:22:07.919Z,99562.84
2023-05-13T10:25:12.940Z,99550.53
2023-05-13T10:28:17.185Z,99556.34
2023-05-13T10:31:20.829Z,99550.63
2023-05-13T10:34:27.313Z,99554.78
2023-05-13T10:38:01.771Z,99559.41
2023-05-13T10:41:13.233Z,99553.06
2023-05-13T10:44:16.788Z,99546.22
2023-05-13T10:47:20.485Z,99547.19
2023-05-13T10:50:25.519Z,99561.91
2023-05-13T10:53:33.129Z,99559.38
2023-05-13T10:56:37.763Z,99555.31
2023-05-13T11:00:20.069Z,99561.84
2023-05-13T11:03:31.079Z,99549.66
2023-05-13T11:06:36.892Z,99544.34
2023-05-13T11:09:40.420Z,99570.91
2023-05-13T11:12:43.868Z,99569.25
2023-05-13T11:15:51.132Z,99564.41
2023-05-13T11:18:54.929Z,99562.31
2023-05-13T11:22:00.459Z,99565.69
2023-05-13T11:25:09.605Z,99561.59
2023-05-13T11:28:16.669Z,99562.56
2023-05-13T11:31:22.844Z,99569.38
2023-05-13T11:34:26.669Z,99553.94
2023-05-13T11:37:32.826Z,99564.44
2023-05-13T11:40:39.135Z,99569.78
2023-05-13T11:43:42.854Z,99570.94
2023-05-13T11:46:56.389Z,99564.09
2023-05-13T11:49:59.881Z,99564.94
2023-05-13T11:53:03.638Z,99565.09
2023-05-13T11:56:12.948Z,99565.25
2023-05-13T11:59:16.760Z,99568.06
2023-05-13T12:02:25.314Z,99572.47
2023-05-13T12:05:30.413Z,99563.16
2023-05-13T12:08:34.506Z,99559.53
2023-05-13T12:11:38.194Z,99566.56
2023-05-13T12:14:43.768Z,99565.38
2023-05-13T12:17:50.871Z,99567.53
2023-05-13T12:20:54.646Z,99563.56
2023-05-13T12:23:58.847Z,99559.00
2023-05-13T12:27:08.624Z,99556.75
2023-05-13T12:30:16.630Z,99566.97
2023-05-13T12:33:23.361Z,99556.47
2023-05-13T12:36:35.969Z,99562.28
2023-05-13T12:39:39.755Z,99561.28
2023-05-13T12:42:46.345Z,99557.28
2023-05-13T12:45:55.022Z,99553.09
2023-05-13T12:49:01.555Z,99559.00
2023-05-13T12:52:05.792Z,99561.59
2023-05-13T12:55:10.562Z,99564.00
2023-05-13T12:58:14.896Z,99565.56
2023-05-13T13:01:19.016Z,99556.06
2023-05-13T13:04:23.920Z,99560.59
2023-05-13T13:07:27.566Z,99560.66
2023-05-13T13:10:31.234Z,99554.69
2023-05-13T13:13:36.688Z,99559.09
2023-05-13T13:16:41.704Z,99557.66
2023-05-13T13:19:46.743Z,99553.13
2023-05-13T13:22:50.201Z,99555.16
2023-05-13T13:25:53.701Z,99551.91
2023-05-13T13:28:57.112Z,99546.69
2023-05-13T13:32:00.742Z,99557.06
2023-05-13T13:35:06.149Z,99554.38
2023-05-13T13:38:09.886Z,99550.09
2023-05-13T13:41:13.374Z,99550.13
2023-05-13T13:44:16.942Z,99547.28
2023-05-13T13:47:20.535Z,99546.97
2023-05-13T13:50:25.761Z,99542.56
2023-05-13T13:53:29.408Z,99546.09
2023-05-13T13:56:33.031Z,99545.13
2023-05-13T13:59:36.624Z,99542.22
2023-05-13T14:02:41.072Z,99540.19
2023-05-13T14:05:46.151Z,99540.63
2023-05-13T14:08:51.164Z,99537.78
2023-05-13T14:11:54.597Z,99524.75
2023-05-13T14:14:58.295Z,99531.91
2023-05-13T14:18:01.797Z,99522.69
2023-05-13T14:21:10.878Z,99521.84
2023-05-13T14:24:14.522Z,99514.84
2023-05-13T14:27:18.025Z,99530.63
2023-05-13T14:30:21.659Z,99524.13
2023-05-13T14:33:25.798Z,99527.78
2023-05-13T14:36:31.541Z,99522.06
2023-05-13T14:39:35.131Z,99531.91
2023-05-13T14:42:39.025Z,99529.91
2023-05-13T14:45:43.170Z,99526.97
2023-05-13T14:48:46.837Z,99524.09
2023-05-13T14:51:51.883Z,99527.28
2023-05-13T14:54:56.247Z,99515.06
2023-05-13T14:57:59.808Z,99515.94
2023-05-13T15:01:03.747Z,99531.41
2023-05-13T15:04:07.510Z,99530.53
2023-05-13T15:07:12.790Z,99530.88
2023-05-13T15:10:16.403Z,99532.16
2023-05-13T15:13:20.279Z,99541.91
2023-05-13T15:16:23.983Z,99532.22
2023-05-13T15:19:27.481Z,99522.50
2023-05-13T15:22:34.088Z,99533.00
2023-05-13T15:25:38.350Z,99527.19
2023-05-13T15:28:42.077Z,99524.25
2023-05-13T15:31:45.679Z,99518.47
2023-05-13T15:34:49.451Z,99520.22
2023-05-13T15:37:54.444Z,99518.38
2023-05-13T15:40:57.945Z,99522.78
2023-05-13T15:44:01.557Z,99511.72
2023-05-13T15:47:06.226Z,99509.41
2023-05-13T15:50:10.822Z,99519.41
2023-05-13T15:53:16.199Z,99515.44
2023-05-13T15:56:19.784Z,99506.50
2023-05-13T15:59:23.331Z,99506.22
2023-05-13T16:02:29.287Z,99501.81
2023-05-13T16:05:33.572Z,99509.63
2023-05-13T16:08:38.388Z,99506.59
2023-05-13T16:11:42.724Z,99498.69
2023-05-13T16:14:46.160Z,99502.66
2023-05-13T16:17:49.678Z,99508.19
2023-05-13T16:20:53.485Z,99501.81
2023-05-13T16:23:58.558Z,99503.53
2023-05-13T16:27:02.088Z,99504.34
2023-05-13T16:30:07.456Z,99507.25
2023-05-13T16:33:11.801Z,99504.91
2023-05-13T16:36:15.603Z,99501.44
2023-05-13T16:39:20.389Z,99509.25
2023-05-13T16:42:24.390Z,99501.38
2023-05-13T16:45:27.866Z,99505.94
2023-05-13T16:48:31.396Z,99501.38
2023-05-13T16:51:35.039Z,99506.91
2023-05-13T16:54:40.037Z,99497.84
2023-05-13T16:57:43.883Z,99500.81
2023-05-13T17:00:47.342Z,99489.38
2023-05-13T17:03:50.779Z,99495.31
2023-05-13T17:06:55.795Z,99495.56
2023-05-13T17:10:02.629Z,99496.09
2023-05-13T17:13:06.131Z,99497.69
2023-05-13T17:16:10.100Z,99497.00
2023-05-13T17:19:13.571Z,99498.25
2023-05-13T17:22:17.119Z,99495.56
2023-05-13T17:25:21.894Z,99491.72
2023-05-13T17:28:25.764Z,99500.28
2023-05-13T17:31:29.623Z,99503.38
2023-05-13T17:34:33.868Z,99499.13
2023-05-13T17:37:37.710Z,99492.38
2023-05-13T17:40:42.588Z,99498.72
2023-05-13T17:43:45.994Z,99488.41
2023-05-13T17:46:49.336Z,99493.78
2023-05-13T17:49:52.678Z,99497.53
2023-05-13T17:52:56.035Z,99502.38
2023-05-13T17:56:01.078Z,99496.28
2023-05-13T17:59:06.356Z,99499.97
2023-05-13T18:02:09.884Z,99505.31
2023-05-13T18:05:14.484Z,99497.22
2023-05-13T18:08:18.034Z,99509.47
2023-05-13T18:11:23.029Z,99508.13
2023-05-13T18:14:26.460Z,99516.44
2023-05-13T18:17:30.213Z,99513.53
2023-05-13T18:20:34.395Z,99511.38
2023-05-13T18:23:37.811Z,99513.00
2023-05-13T18:26:43.108Z,99519.88
2023-05-13T18:29:47.926Z,99529.22
2023-05-13T18:32:52.022Z,99520.81
2023-05-13T18:35:55.489Z,99527.81
2023-05-13T18:38:59.483Z,99526.88
2023-05-13T18:42:04.634Z,99535.09
2023-05-13T18:45:09.108Z,99536.56
2023-05-13T18:48:12.719Z,99541.34
2023-05-13T18:51:16.580Z,99543.28
2023-05-13T18:54:20.128Z,99549.38
2023-05-13T18:57:25.252Z,99557.34
2023-05-13T19:00:28.832Z,99553.84
2023-05-13T19:03:32.525Z,99553.50
2023-05-13T19:06:38.061Z,99551.38
2023-05-13T19:09:41.776Z,99557.28
2023-05-13T19:12:46.646Z,99552.34
2023-05-13T19:15:50.281Z,99556.53
2023-05-13T19:18:54.649Z,99560.50
2023-05-13T19:21:58.173Z,99569.91
2023-05-13T19:25:01.672Z,99567.59
2023-05-13T19:28:06.676Z,99572.03
2023-05-13T19:31:10.140Z,99566.94
2023-05-13T19:34:14.710Z,99564.94
2023-05-13T19:37:18.193Z,99561.59
2023-05-13T19:40:22.196Z,99562.66
2023-05-13T19:43:27.324Z,99559.63
2023-05-13T19:46:31.234Z,99570.28
2023-05-13T19:49:34.810Z,99565.91
2023-05-13T19:52:38.224Z,99567.09
2023-05-13T19:55:41.741Z,99566.34
2023-05-13T19:58:46.574Z,99565.09
2023-05-13T20:01:50.224Z,99574.81
2023-05-13T20:04:53.700Z,99570.50
2023-05-13T20:07:57.128Z,99571.88
2023-05-13T20:11:00.936Z,99562.47
2023-05-13T20:14:06.017Z,99555.59
2023-05-13T20:17:09.460Z,99557.16
2023-05-13T20:20:13.790Z,99561.03
2023-05-13T20:23:17.222Z,99556.88
2023-05-13T20:26:20.603Z,99556.41
2023-05-13T20:29:25.531Z,99557.84
2023-05-13T20:32:29.301Z,99551.75
2023-05-13T20:35:32.995Z,99547.66
2023-05-13T20:38:36.586Z,99548.16
2023-05-13T20:41:40.220Z,99541.19
2023-05-13T20:44:46.474Z,99551.69
2023-05-13T20:47:49.906Z,99551.34
2023-05-13T20:51:00.025Z,99548.09
2023-05-13T20:54:03.468Z,99539.56
2023-05-13T20:57:07.223Z,99535.84
2023-05-13T21:00:14.023Z,99541.50
2023-05-13T21:03:17.958Z,99546.50
2023-05-13T21:06:24.731Z,99550.06
2023-05-13T21:09:28.115Z,99547.34
2023-05-13T21:12:31.532Z,99548.66
2023-05-13T21:15:36.617Z,99551.63
2023-05-13T21:18:40.508Z,99545.84
2023-05-13T21:21:44.028Z,99544.41
2023-05-13T21:24:47.984Z,99554.63
2023-05-13T21:27:51.406Z,99553.03
2023-05-13T21:30:56.231Z,99555.34
2023-05-13T21:33:59.596Z,99549.78
2023-05-13T21:37:05.337Z,99550.03
2023-05-13T21:40:10.234Z,99553.81
2023-05-13T21:43:13.900Z,99544.50
2023-05-13T21:46:18.732Z,99544.41
2023-05-13T21:49:22.150Z,99545.84
2023-05-13T21:52:25.542Z,99545.91
2023-05-13T21:55:28.953Z,99544.53
2023-05-13T21:58:32.330Z,99539.06
2023-05-13T22:01:38.056Z,99542.16
2023-05-13T22:04:41.809Z,99535.38
2023-05-13T22:07:45.225Z,99537.13
2023-05-13T22:10:48.777Z,99532.97
2023-05-13T22:13:52.388Z,99535.72
2023-05-13T22:17:08.440Z,99534.50
2023-05-13T22:20:14.075Z,99537.72
2023-05-13T22:23:17.419Z,99538.56
2023-05-13T22:26:21.964Z,99537.19
2023-05-13T22:29:25.434Z,99533.66
2023-05-13T22:32:30.664Z,99536.88
2023-05-13T22:35:36.572Z,99524.72
2023-05-13T22:38:40.744Z,99522.84
2023-05-13T22:41:44.642Z,99523.88
2023-05-13T22:44:48.132Z,99523.41
2023-05-13T22:47:53.067Z,99533.34
2023-05-13T22:50:58.415Z,99530.38
2023-05-13T22:54:02.266Z,99531.84
2023-05-13T22:57:05.945Z,99528.81
2023-05-13T23:00:10.558Z,99526.50
2023-05-13T23:03:15.367Z,99526.81
2023-05-13T23:06:18.841Z,99520.34
2023-05-13T23:09:22.326Z,99513.16
2023-05-13T23:12:26.802Z,99515.38
2023-05-13T23:15:30.237Z,99513.84
2023-05-13T23:18:35.490Z,99505.91
2023-05-13T23:21:39.019Z,99507.72
2023-05-13T23:24:42.677Z,99512.09
2023-05-13T23:27:46.088Z,99503.13
2023-05-13T23:30:49.482Z,99501.09
2023-05-13T23:33:54.665Z,99500.16
2023-05-13T23:36:58.248Z,99500.00
2023-05-13T23:40:02.501Z,99495.34
2023-05-13T23:43:06.099Z,99490.03
2023-05-13T23:46:09.820Z,99496.22
2023-05-13T23:49:14.744Z,99490.09
2023-05-13T23:52:18.476Z,99491.97
2023-05-13T23:55:22.544Z,99487.38
2023-05-13T23:58:26.032Z,99493.19
